PWSweather.com
Personal Weather Stations
Station Observations
SKYDIVEKS
Skydive Kansas, Osage City, KS 66523

Skydive KansasOsage City, KS 66523

Lat: 38.636, Lon: -95.803

Elevation: 1080

Station Type: La Crosse

http://www.skydivekansas.com

Latest ConditionsUpdated 10:45:00 PM CDT Tuesday, Jun 28, 2016
Currently Today's Max Today's Min Today's Average
Temperature 78.6°F25.9°C 105.4°F40.8°C 69.6°F20.9°C 85.1°F29.5°C
Dew Point 60.0°F15.6°C 71.7°F22.1°C 56.2°F13.4°C 63.5°F17.5°C
Winds 3.8 mph ENE6.1 kmh ENE 20.8 mph E33.5 kmh E - 5.8 mph 9.3 kmh
Wind Gusts 5.6 mph9.0 kmh 29.1 mph46.8 kmh - -
Humidity 53% 67% 34% 50%
Pressure 29.06 in984.1 mb 29.19 in988.5 mb 29.03 in983.1 mb -
Hour Temp Dew Point Humidity Winds Wind Gusts Pressure Precip Precip Rate Daily Precip Total
10:45 PM 78.6°F25.9°C 60.0°F15.6°C 53% 3.8 mph ENE6.1 kmh ENE 5.6 mph9.0 kmh 29.06 in984.1 mb 0.00 in0.0 mm 0.00 in0.0 mm 0.00 in0.0 mm
10:30 PM 79.3°F26.3°C 60.2°F15.7°C 52% 3.4 mph E5.5 kmh E 6.3 mph10.1 kmh 29.05 in983.7 mb 0.00 in0.0 mm 0.00 in0.0 mm 0.00 in0.0 mm
10:15 PM 80.4°F26.9°C 60.6°F15.9°C 51% 4.3 mph ESE6.9 kmh ESE 5.6 mph9.0 kmh 29.05 in983.7 mb 0.00 in0.0 mm 0.00 in0.0 mm 0.00 in0.0 mm
10:00 PM 81.3°F27.4°C 61.4°F16.3°C 51% 4.9 mph E7.9 kmh E 5.8 mph9.3 kmh 29.05 in983.7 mb 0.00 in0.0 mm 0.00 in0.0 mm 0.00 in0.0 mm
09:45 PM 82.2°F27.9°C 62.2°F16.8°C 51% 4.0 mph E6.4 kmh E 6.0 mph9.7 kmh 29.04 in983.4 mb 0.00 in0.0 mm 0.00 in0.0 mm 0.00 in0.0 mm
09:30 PM 83.3°F28.5°C 62.8°F17.1°C 50% 5.1 mph E8.2 kmh E 8.5 mph13.7 kmh 29.03 in983.1 mb 0.00 in0.0 mm 0.00 in0.0 mm 0.00 in0.0 mm
09:15 PM 84.4°F29.1°C 63.2°F17.3°C 49% 5.8 mph E9.3 kmh E 9.2 mph14.8 kmh 29.04 in983.4 mb 0.00 in0.0 mm 0.00 in0.0 mm 0.00 in0.0 mm
09:00 PM 85.5°F29.7°C 63.6°F17.6°C 48% 6.5 mph E10.5 kmh E 8.7 mph14.0 kmh 29.03 in983.1 mb 0.00 in0.0 mm 0.00 in0.0 mm 0.00 in0.0 mm
08:45 PM 86.7°F30.4°C 64.1°F17.8°C 47% 3.4 mph NE5.5 kmh NE 4.7 mph7.6 kmh 29.03 in983.1 mb 0.00 in0.0 mm 0.00 in0.0 mm 0.00 in0.0 mm
08:30 PM 88.2°F31.2°C 64.7°F18.2°C 46% 5.1 mph NE8.2 kmh NE 6.9 mph11.1 kmh 29.04 in983.4 mb 0.00 in0.0 mm 0.00 in0.0 mm 0.00 in0.0 mm
08:15 PM 89.2°F31.8°C 65.0°F18.3°C 45% 5.6 mph ENE9.0 kmh ENE 10.1 mph16.3 kmh 29.04 in983.4 mb 0.00 in0.0 mm 0.00 in0.0 mm 0.00 in0.0 mm
08:00 PM 90.5°F32.5°C 65.5°F18.6°C 44% 6.3 mph NE10.1 kmh NE 8.3 mph13.4 kmh 29.05 in983.7 mb 0.00 in0.0 mm 0.00 in0.0 mm 0.00 in0.0 mm
07:45 PM 91.6°F33.1°C 65.8°F18.8°C 43% 5.8 mph NE9.3 kmh NE 10.5 mph16.9 kmh 29.05 in983.7 mb 0.00 in0.0 mm 0.00 in0.0 mm 0.00 in0.0 mm
07:30 PM 92.5°F33.6°C 65.9°F18.8°C 42% 4.7 mph ENE7.6 kmh ENE 10.5 mph16.9 kmh 29.05 in983.7 mb 0.00 in0.0 mm 0.00 in0.0 mm 0.00 in0.0 mm
07:15 PM 93.9°F34.4°C 66.6°F19.2°C 41% 7.6 mph ENE12.2 kmh ENE 11.6 mph18.7 kmh 29.06 in984.1 mb 0.00 in0.0 mm 0.00 in0.0 mm 0.00 in0.0 mm
07:00 PM 95.0°F35.0°C 66.9°F19.4°C 40% 5.1 mph N8.2 kmh N 9.4 mph15.1 kmh 29.05 in983.7 mb 0.00 in0.0 mm 0.00 in0.0 mm 0.00 in0.0 mm
06:45 PM 95.7°F35.4°C 66.7°F19.3°C 39% 6.3 mph WSW10.1 kmh WSW 11.4 mph18.3 kmh 29.05 in983.7 mb 0.00 in0.0 mm 0.00 in0.0 mm 0.00 in0.0 mm
06:30 PM 96.4°F35.8°C 67.4°F19.7°C 39% 7.8 mph WSW12.6 kmh WSW 10.3 mph16.6 kmh 29.04 in983.4 mb 0.00 in0.0 mm 0.00 in0.0 mm 0.00 in0.0 mm
06:15 PM 97.0°F36.1°C 67.9°F19.9°C 39% 8.5 mph W13.7 kmh W 11.6 mph18.7 kmh 29.04 in983.4 mb 0.00 in0.0 mm 0.00 in0.0 mm 0.00 in0.0 mm
06:00 PM 98.4°F36.9°C 68.3°F20.2°C 38% 9.2 mph NW14.8 kmh NW 11.6 mph18.7 kmh 29.04 in983.4 mb 0.00 in0.0 mm 0.00 in0.0 mm 0.00 in0.0 mm
05:45 PM 99.3°F37.4°C 68.3°F20.2°C 37% 5.4 mph NW8.7 kmh NW 11.6 mph18.7 kmh 29.05 in983.7 mb 0.00 in0.0 mm 0.00 in0.0 mm 0.00 in0.0 mm
05:30 PM 101.8°F38.8°C 69.7°F20.9°C 36% 11.4 mph ENE18.3 kmh ENE 11.9 mph19.2 kmh 29.05 in983.7 mb 0.00 in0.0 mm 0.00 in0.0 mm 0.00 in0.0 mm
05:15 PM 102.0°F38.9°C 69.9°F21.1°C 36% 11.4 mph NE18.3 kmh NE 11.4 mph18.3 kmh 29.06 in984.1 mb 0.00 in0.0 mm 0.00 in0.0 mm 0.00 in0.0 mm
05:00 PM 101.1°F38.4°C 69.1°F20.6°C 36% Calm Calm 9.4 mph15.1 kmh 29.07 in984.4 mb 0.00 in0.0 mm 0.00 in0.0 mm 0.00 in0.0 mm
04:45 PM 101.8°F38.8°C 69.7°F20.9°C 36% 7.8 mph NE12.6 kmh NE 11.6 mph18.7 kmh 29.07 in984.4 mb 0.00 in0.0 mm 0.00 in0.0 mm 0.00 in0.0 mm
04:30 PM 103.6°F39.8°C 70.5°F21.4°C 35% 10.3 mph ENE16.6 kmh ENE 10.3 mph16.6 kmh 29.08 in984.8 mb 0.00 in0.0 mm 0.00 in0.0 mm 0.00 in0.0 mm
04:15 PM 105.4°F40.8°C 71.2°F21.8°C 34% 7.4 mph NE11.9 kmh NE 11.2 mph18.0 kmh 29.09 in985.1 mb 0.00 in0.0 mm 0.00 in0.0 mm 0.00 in0.0 mm
04:00 PM 105.1°F40.6°C 71.7°F22.1°C 35% 3.8 mph ENE6.1 kmh ENE 8.9 mph14.3 kmh 29.09 in985.1 mb 0.00 in0.0 mm 0.00 in0.0 mm 0.00 in0.0 mm
03:45 PM 104.9°F40.5°C 71.5°F21.9°C 35% Calm Calm 7.4 mph11.9 kmh 29.10 in985.4 mb 0.00 in0.0 mm 0.00 in0.0 mm 0.00 in0.0 mm
03:30 PM 101.8°F38.8°C 69.7°F20.9°C 36% 6.3 mph NNE10.1 kmh NNE 8.5 mph13.7 kmh 29.11 in985.8 mb 0.00 in0.0 mm 0.00 in0.0 mm 0.00 in0.0 mm
03:15 PM 101.3°F38.5°C 70.1°F21.2°C 37% 6.5 mph E10.5 kmh E 10.5 mph16.9 kmh 29.11 in985.8 mb 0.00 in0.0 mm 0.00 in0.0 mm 0.00 in0.0 mm
03:00 PM 99.1°F37.3°C 69.0°F20.6°C 38% 5.1 mph NE8.2 kmh NE 9.8 mph15.8 kmh 29.12 in986.1 mb 0.00 in0.0 mm 0.00 in0.0 mm 0.00 in0.0 mm
02:45 PM 95.7°F35.4°C 66.7°F19.3°C 39% 1.8 mph ENE2.9 kmh ENE 10.5 mph16.9 kmh 29.12 in986.1 mb 0.00 in0.0 mm 0.00 in0.0 mm 0.00 in0.0 mm
02:30 PM 98.6°F37.0°C 70.2°F21.2°C 40% 5.4 mph SE8.7 kmh SE 15.0 mph24.1 kmh 29.12 in986.1 mb 0.00 in0.0 mm 0.00 in0.0 mm 0.00 in0.0 mm
02:15 PM 96.8°F36.0°C 69.9°F21.1°C 42% 5.8 mph ENE9.3 kmh ENE 9.8 mph15.8 kmh 29.13 in986.5 mb 0.00 in0.0 mm 0.00 in0.0 mm 0.00 in0.0 mm
02:00 PM 95.5°F35.3°C 68.7°F20.4°C 42% 5.6 mph E9.0 kmh E 8.9 mph14.3 kmh 29.13 in986.5 mb 0.00 in0.0 mm 0.00 in0.0 mm 0.00 in0.0 mm
01:45 PM 94.8°F34.9°C 68.7°F20.4°C 43% 5.4 mph E8.7 kmh E 14.5 mph23.3 kmh 29.13 in986.5 mb 0.00 in0.0 mm 0.00 in0.0 mm 0.00 in0.0 mm
01:30 PM 93.0°F33.9°C 67.7°F19.8°C 44% 6.0 mph E9.7 kmh E 13.6 mph21.9 kmh 29.13 in986.5 mb 0.00 in0.0 mm 0.00 in0.0 mm 0.00 in0.0 mm
01:15 PM 93.9°F34.4°C 67.9°F19.9°C 43% 10.7 mph E17.2 kmh E 14.1 mph22.7 kmh 29.14 in986.8 mb 0.00 in0.0 mm 0.00 in0.0 mm 0.00 in0.0 mm
01:00 PM 94.3°F34.6°C 68.2°F20.1°C 43% 8.1 mph ENE13.0 kmh ENE 14.5 mph23.3 kmh 29.14 in986.8 mb 0.00 in0.0 mm 0.00 in0.0 mm 0.00 in0.0 mm
12:45 PM 94.6°F34.8°C 68.6°F20.3°C 43% 10.1 mph ENE16.3 kmh ENE 15.4 mph24.8 kmh 29.15 in987.1 mb 0.00 in0.0 mm 0.00 in0.0 mm 0.00 in0.0 mm
12:30 PM 95.2°F35.1°C 68.4°F20.2°C 42% 12.1 mph ENE19.5 kmh ENE 15.4 mph24.8 kmh 29.14 in986.8 mb 0.00 in0.0 mm 0.00 in0.0 mm 0.00 in0.0 mm
12:15 PM 95.4°F35.2°C 69.2°F20.7°C 43% 13.6 mph ENE21.9 kmh ENE 16.1 mph25.9 kmh 29.15 in987.1 mb 0.00 in0.0 mm 0.00 in0.0 mm 0.00 in0.0 mm
12:00 PM 95.9°F35.5°C 69.1°F20.6°C 42% 12.8 mph NE20.6 kmh NE 15.7 mph25.3 kmh 29.15 in987.1 mb 0.00 in0.0 mm 0.00 in0.0 mm 0.00 in0.0 mm
11:45 AM 96.4°F35.8°C 70.2°F21.2°C 43% 12.5 mph NE20.1 kmh NE 15.9 mph25.6 kmh 29.16 in987.5 mb 0.00 in0.0 mm 0.00 in0.0 mm 0.00 in0.0 mm
11:30 AM 95.4°F35.2°C 69.9°F21.1°C 44% 11.4 mph NE18.3 kmh NE 13.6 mph21.9 kmh 29.15 in987.1 mb 0.00 in0.0 mm 0.00 in0.0 mm 0.00 in0.0 mm
11:15 AM 94.1°F34.5°C 70.1°F21.2°C 46% 12.5 mph NE20.1 kmh NE 18.1 mph29.1 kmh 29.15 in987.1 mb 0.00 in0.0 mm 0.00 in0.0 mm 0.00 in0.0 mm
11:00 AM 93.0°F33.9°C 69.7°F20.9°C 47% 13.0 mph NE20.9 kmh NE 20.4 mph32.8 kmh 29.15 in987.1 mb 0.00 in0.0 mm 0.00 in0.0 mm 0.00 in0.0 mm
10:45 AM 91.4°F33.0°C 68.9°F20.5°C 48% 7.6 mph NE12.2 kmh NE 19.7 mph31.7 kmh 29.15 in987.1 mb 0.00 in0.0 mm 0.00 in0.0 mm 0.00 in0.0 mm
10:30 AM 88.3°F31.3°C 67.4°F19.7°C 50% 13.4 mph NNE21.6 kmh NNE 22.4 mph36.0 kmh 29.15 in987.1 mb 0.00 in0.0 mm 0.00 in0.0 mm 0.00 in0.0 mm
10:15 AM 85.6°F29.8°C 66.0°F18.9°C 52% 14.8 mph NNE23.8 kmh NNE 22.8 mph36.7 kmh 29.15 in987.1 mb 0.00 in0.0 mm 0.00 in0.0 mm 0.00 in0.0 mm
10:00 AM 85.8°F29.9°C 66.2°F19.0°C 52% 10.7 mph NNE17.2 kmh NNE 18.3 mph29.5 kmh 29.14 in986.8 mb 0.00 in0.0 mm 0.00 in0.0 mm 0.00 in0.0 mm
09:45 AM 82.6°F28.1°C 66.8°F19.3°C 59% 8.3 mph NNE13.4 kmh NNE 16.1 mph25.9 kmh 29.15 in987.1 mb 0.00 in0.0 mm 0.00 in0.0 mm 0.00 in0.0 mm
09:30 AM 75.4°F24.1°C 62.8°F17.1°C 65% 5.8 mph NNE9.3 kmh NNE 8.5 mph13.7 kmh 29.13 in986.5 mb 0.00 in0.0 mm 0.00 in0.0 mm 0.00 in0.0 mm
09:15 AM 72.3°F22.4°C 60.7°F15.9°C 67% 9.2 mph NNE14.8 kmh NNE 11.4 mph18.3 kmh 29.13 in986.5 mb 0.00 in0.0 mm 0.00 in0.0 mm 0.00 in0.0 mm
09:00 AM 70.5°F21.4°C 59.0°F15.0°C 67% 9.8 mph NNE15.8 kmh NNE 12.1 mph19.5 kmh 29.12 in986.1 mb 0.00 in0.0 mm 0.00 in0.0 mm 0.00 in0.0 mm
08:45 AM 69.6°F20.9°C 57.7°F14.3°C 66% 5.4 mph NE8.7 kmh NE 12.3 mph19.8 kmh 29.13 in986.5 mb 0.00 in0.0 mm 0.00 in0.0 mm 0.00 in0.0 mm
08:30 AM 69.6°F20.9°C 57.7°F14.3°C 66% 5.4 mph ENE8.7 kmh ENE 11.0 mph17.7 kmh 29.14 in986.8 mb 0.00 in0.0 mm 0.00 in0.0 mm 0.00 in0.0 mm
08:15 AM 69.6°F20.9°C 57.7°F14.3°C 66% 9.8 mph NE15.8 kmh NE 13.2 mph21.2 kmh 29.17 in987.8 mb 0.00 in0.0 mm 0.00 in0.0 mm 0.00 in0.0 mm
08:00 AM 69.8°F21.0°C 58.3°F14.6°C 67% 17.0 mph ENE27.4 kmh ENE 17.4 mph28.0 kmh 29.17 in987.8 mb 0.00 in0.0 mm 0.00 in0.0 mm 0.00 in0.0 mm
07:45 AM 70.3°F21.3°C 58.8°F14.9°C 67% 16.1 mph ENE25.9 kmh ENE 21.5 mph34.6 kmh 29.17 in987.8 mb 0.00 in0.0 mm 0.00 in0.0 mm 0.00 in0.0 mm
07:30 AM 70.5°F21.4°C 58.6°F14.8°C 66% 5.1 mph NE8.2 kmh NE 18.8 mph30.3 kmh 29.19 in988.5 mb 0.00 in0.0 mm 0.00 in0.0 mm 0.00 in0.0 mm
07:15 AM 70.7°F21.5°C 58.3°F14.6°C 65% 10.3 mph ENE16.6 kmh ENE 22.8 mph36.7 kmh 29.18 in988.1 mb 0.00 in0.0 mm 0.00 in0.0 mm 0.00 in0.0 mm
07:00 AM 71.2°F21.8°C 58.4°F14.7°C 64% 10.7 mph ENE17.2 kmh ENE 23.0 mph37.0 kmh 29.17 in987.8 mb 0.00 in0.0 mm 0.00 in0.0 mm 0.00 in0.0 mm
06:45 AM 72.0°F22.2°C 58.2°F14.6°C 62% 20.8 mph E33.5 kmh E 29.1 mph46.8 kmh 29.17 in987.8 mb 0.00 in0.0 mm 0.00 in0.0 mm 0.00 in0.0 mm
06:30 AM 72.0°F22.2°C 56.3°F13.5°C 58% 5.8 mph E9.3 kmh E 6.9 mph11.1 kmh 29.16 in987.5 mb 0.00 in0.0 mm 0.00 in0.0 mm 0.00 in0.0 mm
06:15 AM 72.0°F22.2°C 56.3°F13.5°C 58% Calm Calm -- 29.12 in986.1 mb 0.00 in0.0 mm 0.00 in0.0 mm 0.00 in0.0 mm
06:00 AM 71.8°F22.1°C 56.2°F13.4°C 58% Calm Calm -- 29.10 in985.4 mb 0.00 in0.0 mm 0.00 in0.0 mm 0.00 in0.0 mm
05:45 AM 71.8°F22.1°C 56.7°F13.7°C 59% Calm Calm -- 29.10 in985.4 mb 0.00 in0.0 mm 0.00 in0.0 mm 0.00 in0.0 mm
05:30 AM 72.0°F22.2°C 56.8°F13.8°C 59% Calm Calm -- 29.09 in985.1 mb 0.00 in0.0 mm 0.00 in0.0 mm 0.00 in0.0 mm
05:15 AM 72.3°F22.4°C 56.7°F13.7°C 58% Calm Calm -- 29.09 in985.1 mb 0.00 in0.0 mm 0.00 in0.0 mm 0.00 in0.0 mm
05:00 AM 72.3°F22.4°C 56.7°F13.7°C 58% Calm Calm -- 29.09 in985.1 mb 0.00 in0.0 mm 0.00 in0.0 mm 0.00 in0.0 mm
04:45 AM 72.7°F22.6°C 57.0°F13.9°C 58% Calm Calm -- 29.09 in985.1 mb 0.00 in0.0 mm 0.00 in0.0 mm 0.00 in0.0 mm
04:30 AM 72.7°F22.6°C 57.0°F13.9°C 58% Calm Calm -- 29.08 in984.8 mb 0.00 in0.0 mm 0.00 in0.0 mm 0.00 in0.0 mm
04:15 AM 73.0°F22.8°C 57.3°F14.1°C 58% Calm Calm -- 29.08 in984.8 mb 0.00 in0.0 mm 0.00 in0.0 mm 0.00 in0.0 mm
04:00 AM 73.2°F22.9°C 57.5°F14.2°C 58% Calm Calm -- 29.09 in985.1 mb 0.00 in0.0 mm 0.00 in0.0 mm 0.00 in0.0 mm
03:45 AM 73.6°F23.1°C 56.8°F13.8°C 56% Calm Calm -- 29.09 in985.1 mb 0.00 in0.0 mm 0.00 in0.0 mm 0.00 in0.0 mm
03:30 AM 73.9°F23.3°C 57.7°F14.3°C 57% Calm Calm -- 29.08 in984.8 mb 0.00 in0.0 mm 0.00 in0.0 mm 0.00 in0.0 mm
03:15 AM 74.1°F23.4°C 57.8°F14.3°C 57% Calm Calm 1.1 mph1.8 kmh 29.08 in984.8 mb 0.00 in0.0 mm 0.00 in0.0 mm 0.00 in0.0 mm
03:00 AM 74.3°F23.5°C 58.5°F14.7°C 58% Calm Calm -- 29.08 in984.8 mb 0.00 in0.0 mm 0.00 in0.0 mm 0.00 in0.0 mm
02:45 AM 74.7°F23.7°C 58.4°F14.7°C 57% Calm Calm -- 29.08 in984.8 mb 0.00 in0.0 mm 0.00 in0.0 mm 0.00 in0.0 mm
02:30 AM 75.0°F23.9°C 58.2°F14.6°C 56% Calm Calm -- 29.09 in985.1 mb 0.00 in0.0 mm 0.00 in0.0 mm 0.00 in0.0 mm
02:15 AM 75.6°F24.2°C 58.2°F14.6°C 55% Calm Calm 1.6 mph2.6 kmh 29.09 in985.1 mb 0.00 in0.0 mm 0.00 in0.0 mm 0.00 in0.0 mm
02:00 AM 76.5°F24.7°C 59.1°F15.1°C 55% 2.9 mph NE4.7 kmh NE 2.9 mph4.7 kmh 29.09 in985.1 mb 0.00 in0.0 mm 0.00 in0.0 mm 0.00 in0.0 mm
01:45 AM 77.0°F25.0°C 59.0°F15.0°C 54% Calm Calm -- 29.09 in985.1 mb 0.00 in0.0 mm 0.00 in0.0 mm 0.00 in0.0 mm
01:30 AM 77.5°F25.3°C 59.5°F15.3°C 54% Calm Calm -- 29.09 in985.1 mb 0.00 in0.0 mm 0.00 in0.0 mm 0.00 in0.0 mm
01:15 AM 78.1°F25.6°C 59.5°F15.3°C 53% Calm Calm -- 29.09 in985.1 mb 0.00 in0.0 mm 0.00 in0.0 mm 0.00 in0.0 mm
01:00 AM 78.6°F25.9°C 60.5°F15.8°C 54% Calm Calm -- 29.09 in985.1 mb 0.00 in0.0 mm 0.00 in0.0 mm 0.00 in0.0 mm
12:45 AM 79.3°F26.3°C 60.7°F15.9°C 53% Calm Calm 3.4 mph5.5 kmh 29.09 in985.1 mb 0.00 in0.0 mm 0.00 in0.0 mm 0.00 in0.0 mm
12:30 AM 80.2°F26.8°C 60.5°F15.8°C 51% 2.7 mph SE4.3 kmh SE 5.8 mph9.3 kmh 29.10 in985.4 mb 0.00 in0.0 mm 0.00 in0.0 mm 0.00 in0.0 mm
12:15 AM 80.8°F27.1°C 60.9°F16.1°C 51% Calm Calm -- 29.09 in985.1 mb 0.00 in0.0 mm 0.00 in0.0 mm 0.00 in0.0 mm
12:00 AM 81.7°F27.6°C 62.3°F16.8°C 52% 2.9 mph SSE4.7 kmh SSE 4.5 mph7.2 kmh 29.09 in985.1 mb 0.00 in0.0 mm 0.00 in0.0 mm 0.00 in0.0 mm